This is the latest recevied weather packets stored in our database for station/object KJ5MET. If no packets are shown the sender has not sent any weather packets the latest 10 day(s).
| Time | Temp. | Humidity | Pressure | Rain* | Wind** | Luminosity | Snow |
|---|---|---|---|---|---|---|---|
| 1788035983 | 36.67° C | 50% | 1013.2 hPa | 0 mm | - | - | - |
| 1788035664 | 36.67° C | 50% | 1013.2 hPa | 0 mm | - | - | - |
| 1788035345 | 36.11° C | 51% | 1013.2 hPa | 0 mm | - | - | - |
| 1788035041 | 35.56° C | 53% | 1013.2 hPa | 0 mm | - | - | - |
| 1788034738 | 35.56° C | 51% | 1013.2 hPa | 0 mm | - | - | - |
| 1788034434 | 35.56° C | 51% | 1013.2 hPa | 0 mm | - | - | - |
| 1788034129 | 36.67° C | 49% | 1013.2 hPa | 0 mm | - | - | - |
| 1788033826 | 36.11° C | 53% | 1013.2 hPa | 0 mm | - | - | - |
| 1788033522 | 36.67° C | 50% | 1013.2 hPa | 0 mm | - | - | - |
| 1788033217 | 36.11° C | 50% | 1013.2 hPa | 0 mm | - | - | - |
| 1788032913 | 36.67° C | 49% | 1013.2 hPa | 0 mm | - | - | - |
| 1788032610 | 37.22° C | 50% | 1013.2 hPa | 0 mm | - | - | - |
| 1788032305 | 37.22° C | 51% | 1013.2 hPa | 0 mm | - | - | - |
| 1788031986 | 36.67° C | 49% | 1013.5 hPa | 0 mm | - | - | - |
| 1788031682 | 37.22° C | 47% | 1013.5 hPa | 0 mm | - | - | - |
| 1788031379 | 36.67° C | 51% | 1013.5 hPa | 0 mm | - | - | - |
| 1788031074 | 36.67° C | 51% | 1013.5 hPa | 0 mm | - | - | - |
| 1788030755 | 36.67° C | 51% | 1013.9 hPa | 0 mm | - | - | - |
| 1788030451 | 37.22° C | 50% | 1013.9 hPa | 0 mm | - | - | - |
| 1788030146 | 36.67° C | 52% | 1013.9 hPa | 0 mm | - | - | - |
| 1788029841 | 36.67° C | 53% | 1014.2 hPa | 0 mm | - | - | - |
| 1788029538 | 36.67° C | 53% | 1014.2 hPa | 0 mm | - | - | - |
| 1788029219 | 36.67° C | 57% | 1014.2 hPa | 0 mm | - | - | - |
| 1788028900 | 36.67° C | 54% | 1014.2 hPa | 0 mm | - | - | - |
| 1788028596 | 36.11° C | 56% | 1014.2 hPa | 0 mm | - | - | - |
* Rain latest hour (hover to see other rain measurements)
** Current wind speed in m/s (hover to see current wind gust speed)